Home > Products > Valid Products > TAF

000
FTUS44 KMRX 061120
TAFTRI
TAF
KTRI 061120Z 0612/0712 27007KT P6SM BKN035
     FM061700 29010G20KT P6SM VCSH BKN070
     FM070000 27005KT P6SM SCT050=



000
FTUS44 KMRX 061120
TAFCHA
TAF
KCHA 061120Z 0612/0712 34006KT P6SM SKC
     FM061600 35010G20KT P6SM SCT070
     FM070000 34004KT P6SM SKC=



000
FTUS44 KMRX 061120
TAFCHA
TAF
KCHA 061120Z 0612/0712 34006KT P6SM SKC
     FM061600 35010G20KT P6SM SCT070
     FM070000 34004KT P6SM SKC=



000
FTUS44 KMRX 061120
TAFTYS
TAF
KTYS 061120Z 0612/0712 25007KT P6SM SKC
     FM061600 34010G20KT P6SM SCT070
     FM070000 24006KT P6SM SCT060=



000
FTUS44 KMRX 061120
TAFTYS
TAF
KTYS 061120Z 0612/0712 25007KT P6SM SKC
     FM061600 34010G20KT P6SM SCT070
     FM070000 24006KT P6SM SCT060=



000
FTUS44 KMRX 061120
TAFTRI
TAF
KTRI 061120Z 0612/0712 27007KT P6SM BKN035
     FM061700 29010G20KT P6SM VCSH BKN070
     FM070000 27005KT P6SM SCT050=



000
FTUS44 KMRX 060520
TAFCHA
TAF
KCHA 060520Z 0606/0706 34005KT P6SM SKC
     FM061500 36012G22KT P6SM SCT050
     FM070000 34004KT P6SM SKC=



000
FTUS44 KMRX 060520
TAFTYS
TAF
KTYS 060520Z 0606/0706 24006KT P6SM BKN035
      TEMPO 0606/0609 BKN025
     FM061100 27009KT P6SM SCT050
     FM061500 35012G22KT P6SM BKN060
     FM070000 24006KT P6SM BKN060=



000
FTUS44 KMRX 060520
TAFTRI
TAF
KTRI 060520Z 0606/0706 26006KT P6SM VCSH OVC025
     FM061400 27009KT P6SM OVC035
     FM061600 29010G20KT P6SM VCSH BKN050
     FM070000 27005KT P6SM BKN050=



000
FTUS44 KMRX 060520
TAFTYS
TAF
KTYS 060520Z 0606/0706 24006KT P6SM BKN035
      TEMPO 0606/0609 BKN025
     FM061100 27009KT P6SM SCT050
     FM061500 35012G22KT P6SM BKN060
     FM070000 24006KT P6SM BKN060=



000
FTUS44 KMRX 060520
TAFCHA
TAF
KCHA 060520Z 0606/0706 34005KT P6SM SKC
     FM061500 36012G22KT P6SM SCT050
     FM070000 34004KT P6SM SKC=



000
FTUS44 KMRX 060520
TAFTRI
TAF
KTRI 060520Z 0606/0706 26006KT P6SM VCSH OVC025
     FM061400 27009KT P6SM OVC035
     FM061600 29010G20KT P6SM VCSH BKN050
     FM070000 27005KT P6SM BKN050=



000
FTUS44 KMRX 052323
TAFTYS
TAF
KTYS 052323Z 0600/0624 32009KT P6SM SCT030 BKN045
     FM060300 26008KT P6SM BKN035
     FM061400 35010G17KT P6SM SCT050=



000
FTUS44 KMRX 052323
TAFCHA
TAF
KCHA 052323Z 0600/0624 35010G17KT P6SM BKN050
     FM060400 34007KT P6SM SCT060
     FM061400 36012G20KT P6SM SCT050=



000
FTUS44 KMRX 052323
TAFTRI
TAF
KTRI 052323Z 0600/0624 33008KT P6SM -SHRA SCT015 OVC025
     FM060300 27007KT P6SM VCSH SCT012 OVC020
     FM061600 29010KT P6SM BKN050=



000
FTUS44 KMRX 052323
TAFTYS
TAF
KTYS 052323Z 0600/0624 32009KT P6SM SCT030 BKN045
     FM060300 26008KT P6SM BKN035
     FM061400 35010G17KT P6SM SCT050=



000
FTUS44 KMRX 052323
TAFCHA
TAF
KCHA 052323Z 0600/0624 35010G17KT P6SM BKN050
     FM060400 34007KT P6SM SCT060
     FM061400 36012G20KT P6SM SCT050=



000
FTUS44 KMRX 052323
TAFTRI
TAF
KTRI 052323Z 0600/0624 33008KT P6SM -SHRA SCT015 OVC025
     FM060300 27007KT P6SM VCSH SCT012 OVC020
     FM061600 29010KT P6SM BKN050=



000
FTUS44 KMRX 051931 AAA
TAFCHA
TAF AMD
KCHA 051931Z 0520/0618 32010G18KT P6SM SCT020 OVC050
     FM060100 35010KT P6SM SCT050
     FM060600 35004KT P6SM SCT050
     FM061400 35010G18KT P6SM BKN040=



000
FTUS44 KMRX 051931 AAA
TAFCHA
TAF AMD
KCHA 051931Z 0520/0618 32010G18KT P6SM SCT020 OVC050
     FM060100 35010KT P6SM SCT050
     FM060600 35004KT P6SM SCT050
     FM061400 35010G18KT P6SM BKN040=



000
FTUS44 KMRX 051833 AAA
TAFTYS
TAF AMD
KTYS 051833Z 0519/0618 28010KT P6SM VCSH SCT040 BKN080
     FM052200 33010KT P6SM SCT020 OVC040
     FM060100 28008KT P6SM BKN050
     FM061400 36010G18KT P6SM BKN040=



000
FTUS44 KMRX 051725
TAFTRI
TAF
KTRI 051725Z 0518/0618 33010KT P6SM VCSH OVC040
     FM060000 28007KT 5SM -SHRA BR SCT015 OVC030
     FM060900 27009KT 5SM BR SCT010 OVC020=



000
FTUS44 KMRX 051725
TAFTYS
TAF
KTYS 051725Z 0518/0618 28010KT P6SM VCSH BKN025 OVC040
     FM052200 33010KT P6SM SCT020 OVC040
     FM060100 28008KT P6SM BKN050
     FM061400 36010G18KT P6SM BKN040=



000
FTUS44 KMRX 051725
TAFCHA
TAF
KCHA 051725Z 0518/0618 32010KT P6SM VCSH SCT030 OVC060
     FM052100 34010G18KT P6SM SCT020 OVC050
     FM060100 35010KT P6SM SCT050
     FM060600 35004KT P6SM SCT050
     FM061400 35010G18KT P6SM BKN040=



000
FTUS44 KMRX 051725
TAFCHA
TAF
KCHA 051725Z 0518/0618 32010KT P6SM VCSH SCT030 OVC060
     FM052100 34010G18KT P6SM SCT020 OVC050
     FM060100 35010KT P6SM SCT050
     FM060600 35004KT P6SM SCT050
     FM061400 35010G18KT P6SM BKN040=



000
FTUS44 KMRX 051725
TAFTRI
TAF
KTRI 051725Z 0518/0618 33010KT P6SM VCSH OVC040
     FM060000 28007KT 5SM -SHRA BR SCT015 OVC030
     FM060900 27009KT 5SM BR SCT010 OVC020=



000
FTUS44 KMRX 051725
TAFTYS
TAF
KTYS 051725Z 0518/0618 28010KT P6SM VCSH BKN025 OVC040
     FM052200 33010KT P6SM SCT020 OVC040
     FM060100 28008KT P6SM BKN050
     FM061400 36010G18KT P6SM BKN040=



000
FTUS44 KMRX 051405 AAB
TAFTYS
TAF AMD
KTYS 051405Z 0514/0612 28010KT P6SM VCSH SCT010 BKN040
     FM060100 28008KT P6SM BKN050=



000
FTUS44 KMRX 051334 AAA
TAFTYS
TAF AMD
KTYS 051334Z 0514/0612 26007KT P6SM BKN010 OVC040
     FM051430 29010G17KT P6SM VCSH SCT010 BKN040
     FM060100 28008KT P6SM BKN050=



000
FTUS44 KMRX 051334 AAA
TAFTYS
TAF AMD
KTYS 051334Z 0514/0612 26007KT P6SM BKN010 OVC040
     FM051430 29010G17KT P6SM VCSH SCT010 BKN040
     FM060100 28008KT P6SM BKN050=



000
FTUS44 KMRX 051123
TAFTYS
TAF
KTYS 051123Z 0512/0612 26007KT P6SM SCT040 BKN070
     FM051400 29010G17KT P6SM VCSH BKN040
     FM060100 28008KT P6SM BKN050=



000
FTUS44 KMRX 051123
TAFTRI
TAF
KTRI 051123Z 0512/0612 28008KT P6SM BKN050
     FM051400 28012KT P6SM VCSH BKN040
     FM052300 28007KT 5SM -SHRA BR SCT015 OVC030=



000
FTUS44 KMRX 051123
TAFCHA
TAF
KCHA 051123Z 0512/0612 32005KT P6SM SCT045
     FM051600 33012G20KT P6SM VCSH BKN060
     FM060100 35010KT P6SM SCT050=



000
FTUS44 KMRX 050520
TAFCHA
TAF
KCHA 050520Z 0506/0606 31004KT P6SM SCT045
     FM051500 33012G20KT P6SM VCSH BKN060
     FM060100 34008KT P6SM SCT060=



000
FTUS44 KMRX 050520
TAFTRI
TAF
KTRI 050520Z 0506/0606 26008KT P6SM VCSH BKN050
      TEMPO 0506/0507 -RA BKN025
     FM051400 27010G17KT P6SM VCSH BKN035
     FM052300 27008KT 5SM -SHRA BR SCT015 OVC030=



000
FTUS44 KMRX 050520
TAFTYS
TAF
KTYS 050520Z 0506/0606 26007KT P6SM SCT040 BKN070
     FM051400 28010G17KT P6SM VCSH BKN040
     FM060100 30008KT P6SM BKN050=



000
FTUS44 KMRX 042332
TAFCHA
TAF
KCHA 042332Z 0500/0524 31010KT P6SM VCTS SCT040CB BKN060
      TEMPO 0501/0503 SHRA BKN035
     FM050300 34009KT P6SM SCT045
     FM051400 34012G20KT P6SM VCSH BKN045=



000
FTUS44 KMRX 042332
TAFTRI
TAF
KTRI 042332Z 0500/0524 27010KT P6SM VCSH SCT050 BKN060
      TEMPO 0501/0503 SHRA SCT025 OVC035
     FM050300 26008KT P6SM VCSH BKN035
     FM051400 27010G17KT P6SM VCSH BKN035=



000
FTUS44 KMRX 042332
TAFTYS
TAF
KTYS 042332Z 0500/0524 26010KT P6SM VCSH SCT050 BKN060
      TEMPO 0500/0502 SHRA SCT025 OVC035
     FM050300 26007KT P6SM SCT040
     FM051200 27010G17KT P6SM VCSH BKN035=



000
FTUS44 KMRX 042332
TAFTYS
TAF
KTYS 042332Z 0500/0524 26010KT P6SM VCSH SCT050 BKN060
      TEMPO 0500/0502 SHRA SCT025 OVC035
     FM050300 26007KT P6SM SCT040
     FM051200 27010G17KT P6SM VCSH BKN035=



000
FTUS44 KMRX 042332
TAFCHA
TAF
KCHA 042332Z 0500/0524 31010KT P6SM VCTS SCT040CB BKN060
      TEMPO 0501/0503 SHRA BKN035
     FM050300 34009KT P6SM SCT045
     FM051400 34012G20KT P6SM VCSH BKN045=



000
FTUS44 KMRX 042332
TAFTRI
TAF
KTRI 042332Z 0500/0524 27010KT P6SM VCSH SCT050 BKN060
      TEMPO 0501/0503 SHRA SCT025 OVC035
     FM050300 26008KT P6SM VCSH BKN035
     FM051400 27010G17KT P6SM VCSH BKN035=



000
FTUS44 KMRX 041720
TAFTYS
TAF
KTYS 041720Z 0418/0518 25012KT P6SM SCT060
     FM042200 26012G20KT P6SM -RA SCT050 BKN060
      TEMPO 0422/0502 5SM -SHRA BR BKN035
     FM050200 31012KT P6SM VCSH OVC025
     FM050600 32007KT P6SM BKN035=



000
FTUS44 KMRX 041720
TAFTRI
TAF
KTRI 041720Z 0418/0518 25012KT P6SM BKN070
     FM042300 28012G20KT P6SM -RA SCT050 BKN060
     FM050100 30010KT 4SM -SHRA BR OVC025
     FM050600 31010KT P6SM VCSH OVC020
     FM051300 32009KT P6SM OVC015=



000
FTUS44 KMRX 041720
TAFCHA
TAF
KCHA 041720Z 0418/0518 27012KT P6SM SCT070
     FM042200 27014G22KT P6SM -RA SCT050 BKN060
      TEMPO 0422/0502 5SM -SHRA BR BKN035
     FM050200 32012KT P6SM VCSH OVC030
     FM050600 35008KT P6SM BKN035=



000
FTUS44 KMRX 041120
TAFTRI
TAF
KTRI 041120Z 0412/0512 26006KT P6SM OVC080
     FM041600 25012KT P6SM BKN060
     FM042100 25012KT P6SM VCSH OVC050
     FM050000 26010KT 4SM -SHRA OVC025
     FM050600 26010KT P6SM VCSH OVC020=



000
FTUS44 KMRX 041120
TAFTYS
TAF
KTYS 041120Z 0412/0512 26005KT P6SM SCT080
     FM041600 25012KT P6SM SCT060
     FM042100 25012G20KT P6SM VCSH OVC060
     FM050000 26012KT 5SM -SHRA OVC025
     FM050600 25010KT P6SM BKN035=



000
FTUS44 KMRX 041120
TAFCHA
TAF
KCHA 041120Z 0412/0512 31006KT P6SM FEW040
     FM041600 27012KT P6SM SCT070
     FM042100 29012G20KT P6SM VCSH BKN070
     FM050000 32012KT 5SM -SHRA OVC035
     FM050400 33008KT P6SM BKN035=



000
FTUS44 KMRX 041120
TAFTRI
TAF
KTRI 041120Z 0412/0512 26006KT P6SM OVC080
     FM041600 25012KT P6SM BKN060
     FM042100 25012KT P6SM VCSH OVC050
     FM050000 26010KT 4SM -SHRA OVC025
     FM050600 26010KT P6SM VCSH OVC020=



000
FTUS44 KMRX 041120
TAFTYS
TAF
KTYS 041120Z 0412/0512 26005KT P6SM SCT080
     FM041600 25012KT P6SM SCT060
     FM042100 25012G20KT P6SM VCSH OVC060
     FM050000 26012KT 5SM -SHRA OVC025
     FM050600 25010KT P6SM BKN035=



000
FTUS44 KMRX 041120
TAFCHA
TAF
KCHA 041120Z 0412/0512 31006KT P6SM FEW040
     FM041600 27012KT P6SM SCT070
     FM042100 29012G20KT P6SM VCSH BKN070
     FM050000 32012KT 5SM -SHRA OVC035
     FM050400 33008KT P6SM BKN035=



000
FTUS44 KMRX 040902 AAA
TAFCHA
TAF AMD
KCHA 040902Z 0409/0506 31006KT P6SM FEW080
     FM041600 27012KT P6SM SCT070
     FM042200 29012G20KT P6SM VCSH OVC050
     FM050000 32010KT 3SM -SHRA OVC035
     FM050300 35008KT P6SM BKN035=



000
FTUS44 KMRX 040902 AAA
TAFCHA
TAF AMD
KCHA 040902Z 0409/0506 31006KT P6SM FEW080
     FM041600 27012KT P6SM SCT070
     FM042200 29012G20KT P6SM VCSH OVC050
     FM050000 32010KT 3SM -SHRA OVC035
     FM050300 35008KT P6SM BKN035=



000
FTUS44 KMRX 040808 AAA
TAFTYS
TAF AMD
KTYS 040808Z 0408/0506 29005KT P6SM BKN080
      TEMPO 0408/0409 BKN030
     FM041600 26012KT P6SM BKN060
     FM042100 25012G20KT P6SM VCSH OVC050
     FM050000 28012KT 3SM -SHRA OVC025
     FM050400 31012KT P6SM BKN025=



000
FTUS44 KMRX 040520
TAFTRI
TAF
KTRI 040520Z 0406/0506 29006KT P6SM OVC070
     FM041600 25012KT P6SM BKN060
     FM042200 25012KT P6SM VCSH OVC050
     FM050100 28010KT 3SM -SHRA OVC025=



000
FTUS44 KMRX 040520
TAFTYS
TAF
KTYS 040520Z 0406/0506 29005KT P6SM BKN080
     FM041600 26012KT P6SM BKN060
     FM042100 25012G20KT P6SM VCSH OVC050
     FM050000 28012KT 3SM -SHRA OVC025
     FM050400 31012KT P6SM BKN025=



000
FTUS44 KMRX 040520
TAFCHA
TAF
KCHA 040520Z 0406/0506 33008KT P6SM BKN080
     FM041600 27012KT P6SM SCT070
     FM042200 29012G20KT P6SM VCSH OVC050
     FM050000 32010KT 3SM -SHRA OVC035
     FM050300 35008KT P6SM BKN035=



000
FTUS44 KMRX 032320
TAFTRI
TAF
KTRI 032320Z 0400/0424 27006KT P6SM BKN070
     FM041600 25012KT P6SM BKN060
     FM042100 25012KT P6SM VCSH OVC050=



000
FTUS44 KMRX 032320
TAFCHA
TAF
KCHA 032320Z 0400/0424 33005KT P6SM BKN070
     FM041600 26012KT P6SM SCT070=



000
FTUS44 KMRX 032320
TAFTYS
TAF
KTYS 032320Z 0400/0424 29008KT P6SM BKN070
     FM041600 25012KT P6SM BKN060
     FM042100 25012KT P6SM VCSH OVC050=



000
FTUS44 KMRX 032320
TAFTRI
TAF
KTRI 032320Z 0400/0424 27006KT P6SM BKN070
     FM041600 25012KT P6SM BKN060
     FM042100 25012KT P6SM VCSH OVC050=



000
FTUS44 KMRX 032320
TAFTYS
TAF
KTYS 032320Z 0400/0424 29008KT P6SM BKN070
     FM041600 25012KT P6SM BKN060
     FM042100 25012KT P6SM VCSH OVC050=



000
FTUS44 KMRX 032320
TAFCHA
TAF
KCHA 032320Z 0400/0424 33005KT P6SM BKN070
     FM041600 26012KT P6SM SCT070=



000
FTUS44 KMRX 031720
TAFTYS
TAF
KTYS 031720Z 0318/0418 30010KT P6SM OVC050
     FM040800 27005KT 5SM BR OVC040
     FM041200 25007KT P6SM BKN100=



000
FTUS44 KMRX 031720
TAFTRI
TAF
KTRI 031720Z 0318/0418 25007KT P6SM BKN035 OVC080
     FM040500 28005KT P6SM OVC030
     FM040900 25004KT 4SM BR OVC025
     FM041400 28007KT P6SM BKN050=



000
FTUS44 KMRX 031720
TAFCHA
TAF
KCHA 031720Z 0318/0418 32005KT P6SM BKN050
     FM040300 34006KT P6SM SCT100
     FM041500 26011KT P6SM SCT250=



000
FTUS44 KMRX 031720
TAFTYS
TAF
KTYS 031720Z 0318/0418 30010KT P6SM OVC050
     FM040800 27005KT 5SM BR OVC040
     FM041200 25007KT P6SM BKN100=



000
FTUS44 KMRX 031720
TAFCHA
TAF
KCHA 031720Z 0318/0418 32005KT P6SM BKN050
     FM040300 34006KT P6SM SCT100
     FM041500 26011KT P6SM SCT250=



000
FTUS44 KMRX 031720
TAFTRI
TAF
KTRI 031720Z 0318/0418 25007KT P6SM BKN035 OVC080
     FM040500 28005KT P6SM OVC030
     FM040900 25004KT 4SM BR OVC025
     FM041400 28007KT P6SM BKN050=



    US Dept of Commerce
    National Oceanic and Atmospheric Administration
    National Weather Service
    1325 East West Highway
    Silver Spring, MD 20910
    Page Author: NWS Internet Services Team
Disclaimer
Information Quality
Credits
Glossary
Privacy Policy
Freedom of Information Act (FOIA)
About Us
Career Opportunities